createdAt,value
2022-11-26T00:00:01.414Z,100670.20
2022-11-26T00:02:31.993Z,100666.60
2022-11-26T00:05:00.968Z,100666.00
2022-11-26T00:07:33.199Z,100669.20
2022-11-26T00:10:02.620Z,100666.80
2022-11-26T00:12:35.490Z,100667.80
2022-11-26T00:15:17.018Z,100669.20
2022-11-26T00:17:50.260Z,100666.80
2022-11-26T00:23:47.383Z,100677.80
2022-11-26T00:29:43.850Z,100679.80
2022-11-26T00:44:42.070Z,100675.60
2022-11-26T00:54:01.149Z,100680.60
2022-11-26T00:56:37.606Z,100680.00
2022-11-26T00:59:07.041Z,100679.80
2022-11-26T01:01:35.823Z,100680.60
2022-11-26T01:04:04.790Z,100686.40
2022-11-26T01:06:40.168Z,100678.40
2022-11-26T01:09:18.361Z,100684.60
2022-11-26T01:11:52.410Z,100682.60
2022-11-26T01:14:24.052Z,100683.00
2022-11-26T01:16:57.033Z,100682.00
2022-11-26T01:19:25.837Z,100684.00
2022-11-26T01:21:54.431Z,100688.60
2022-11-26T01:24:23.098Z,100690.80
2022-11-26T01:26:51.808Z,100690.00
2022-11-26T01:29:21.055Z,100688.60
2022-11-26T01:31:50.163Z,100686.00
2022-11-26T01:34:19.379Z,100688.80
2022-11-26T01:36:49.159Z,100685.60
2022-11-26T01:39:23.004Z,100692.40
2022-11-26T01:42:07.556Z,100690.40
2022-11-26T01:44:40.030Z,100689.00
2022-11-26T01:47:31.687Z,100696.80
2022-11-26T01:50:30.027Z,100693.60
2022-11-26T01:53:20.918Z,100692.40
2022-11-26T01:56:00.300Z,100692.60
2022-11-26T01:58:40.797Z,100697.20
2022-11-26T02:01:11.815Z,100696.00
2022-11-26T02:03:57.776Z,100699.20
2022-11-26T02:06:36.648Z,100697.20
2022-11-26T02:09:16.532Z,100695.20
2022-11-26T02:11:50.442Z,100696.20
2022-11-26T02:14:31.585Z,100703.20
2022-11-26T02:17:20.374Z,100699.00
2022-11-26T02:20:26.874Z,100705.00
2022-11-26T02:23:31.711Z,100701.00
2022-11-26T02:26:10.021Z,100699.60
2022-11-26T02:29:13.274Z,100704.20
2022-11-26T02:32:19.308Z,100710.00
2022-11-26T02:35:15.332Z,100709.20
2022-11-26T02:38:01.792Z,100708.40
2022-11-26T02:40:40.359Z,100709.60
2022-11-26T02:43:19.989Z,100709.60
2022-11-26T02:46:17.253Z,100712.60
2022-11-26T02:48:55.307Z,100704.80
2022-11-26T02:51:34.961Z,100707.40
2022-11-26T02:54:12.428Z,100709.20
2022-11-26T02:56:48.555Z,100716.20
2022-11-26T02:59:48.585Z,100715.40
2022-11-26T03:02:40.439Z,100714.20
2022-11-26T03:05:11.892Z,100714.60
2022-11-26T03:07:42.077Z,100719.20
2022-11-26T03:10:11.205Z,100717.60
2022-11-26T03:12:40.157Z,100718.60
2022-11-26T03:15:09.630Z,100719.00
2022-11-26T03:17:38.350Z,100721.60
2022-11-26T03:20:08.386Z,100723.40
2022-11-26T03:22:37.265Z,100729.00
2022-11-26T03:25:07.692Z,100733.60
2022-11-26T03:27:36.564Z,100735.60
2022-11-26T03:30:06.210Z,100745.20
2022-11-26T03:32:35.182Z,100738.40
2022-11-26T03:35:04.937Z,100739.20
2022-11-26T03:37:33.655Z,100740.80
2022-11-26T03:40:02.565Z,100743.20
2022-11-26T03:42:31.368Z,100745.60
2022-11-26T03:44:59.910Z,100743.60
2022-11-26T03:47:29.098Z,100743.00
2022-11-26T03:49:57.782Z,100746.80
2022-11-26T03:52:26.462Z,100746.80
2022-11-26T03:54:55.049Z,100746.40
2022-11-26T03:57:23.845Z,100744.60
2022-11-26T03:59:52.698Z,100751.80
2022-11-26T04:02:21.785Z,100750.20
2022-11-26T04:04:51.607Z,100752.00
2022-11-26T04:07:20.328Z,100751.80
2022-11-26T04:09:49.120Z,100759.20
2022-11-26T04:12:17.936Z,100759.80
2022-11-26T04:14:46.518Z,100757.80
2022-11-26T04:17:15.008Z,100761.40
2022-11-26T04:19:43.577Z,100764.80
2022-11-26T04:22:12.880Z,100763.00
2022-11-26T04:24:41.570Z,100768.80
2022-11-26T04:27:10.312Z,100767.00
2022-11-26T04:29:39.036Z,100768.00
2022-11-26T04:32:08.033Z,100776.20
2022-11-26T04:34:37.011Z,100774.80
2022-11-26T04:37:06.147Z,100775.40
2022-11-26T04:39:34.878Z,100774.40
2022-11-26T04:42:03.647Z,100780.40
2022-11-26T04:44:32.910Z,100780.60
2022-11-26T04:47:01.518Z,100783.40
2022-11-26T04:49:30.275Z,100786.00
2022-11-26T04:51:59.084Z,100791.20
2022-11-26T04:54:27.923Z,100792.60
2022-11-26T04:56:56.589Z,100796.20
2022-11-26T04:59:25.252Z,100796.00
2022-11-26T05:01:53.975Z,100795.20
2022-11-26T05:04:22.925Z,100802.20
2022-11-26T05:06:51.659Z,100804.60
2022-11-26T05:09:20.523Z,100804.60
2022-11-26T05:11:49.372Z,100804.40
2022-11-26T05:14:18.102Z,100807.20
2022-11-26T05:16:47.002Z,100811.60
2022-11-26T05:19:16.127Z,100813.40
2022-11-26T05:21:44.876Z,100813.20
2022-11-26T05:24:13.566Z,100812.80
2022-11-26T05:26:42.216Z,100817.40
2022-11-26T05:29:10.848Z,100819.00
2022-11-26T05:31:39.599Z,100822.40
2022-11-26T05:34:08.324Z,100825.20
2022-11-26T05:36:37.521Z,100827.20
2022-11-26T05:39:06.079Z,100822.60
2022-11-26T05:41:34.799Z,100828.80
2022-11-26T05:44:03.555Z,100833.20
2022-11-26T05:46:32.417Z,100833.60
2022-11-26T05:49:01.109Z,100841.20
2022-11-26T05:51:29.806Z,100845.80
2022-11-26T05:53:58.603Z,100844.20
2022-11-26T05:56:27.286Z,100848.20
2022-11-26T05:58:55.981Z,100851.20
2022-11-26T06:01:24.594Z,100853.80
2022-11-26T06:03:53.433Z,100853.00
2022-11-26T06:06:22.277Z,100856.20
2022-11-26T06:08:51.015Z,100860.80
2022-11-26T06:11:19.716Z,100858.00
2022-11-26T06:13:48.515Z,100863.00
2022-11-26T06:16:17.330Z,100863.80
2022-11-26T06:18:46.178Z,100865.40
2022-11-26T06:21:14.981Z,100862.80
2022-11-26T06:23:50.573Z,100869.40
2022-11-26T06:26:21.800Z,100876.40
2022-11-26T06:28:50.424Z,100878.40
2022-11-26T06:31:19.144Z,100876.80
2022-11-26T06:33:48.023Z,100882.40
2022-11-26T06:36:16.738Z,100882.60
2022-11-26T06:38:45.327Z,100889.80
2022-11-26T06:41:14.090Z,100888.80
2022-11-26T06:43:42.859Z,100898.20
2022-11-26T06:46:12.754Z,100899.00
2022-11-26T06:48:41.862Z,100902.80
2022-11-26T06:51:16.512Z,100907.20
2022-11-26T06:53:45.346Z,100915.60
2022-11-26T06:56:19.181Z,100915.60
2022-11-26T06:58:50.317Z,100919.80
2022-11-26T07:01:26.815Z,100921.00
2022-11-26T07:03:56.052Z,100926.60
2022-11-26T07:06:29.086Z,100925.80
2022-11-26T07:09:05.282Z,100928.40
2022-11-26T07:11:35.976Z,100932.00
2022-11-26T07:14:05.938Z,100938.20
2022-11-26T07:16:36.788Z,100936.60
2022-11-26T07:19:05.734Z,100946.60
2022-11-26T07:21:34.413Z,100948.80
2022-11-26T07:24:03.265Z,100954.00
2022-11-26T07:26:32.041Z,100953.40
2022-11-26T07:29:00.751Z,100954.20
2022-11-26T07:31:29.709Z,100963.20
2022-11-26T07:33:58.647Z,100957.80
2022-11-26T07:36:31.392Z,100961.80
2022-11-26T07:39:02.592Z,100959.00
2022-11-26T07:41:31.579Z,100963.80
2022-11-26T07:44:00.219Z,100959.80
2022-11-26T07:46:29.161Z,100966.40
2022-11-26T07:48:58.460Z,100970.20
2022-11-26T07:51:31.413Z,100976.40
2022-11-26T07:54:04.995Z,100979.20
2022-11-26T07:56:40.645Z,100983.40
2022-11-26T07:59:11.794Z,100979.40
2022-11-26T08:01:40.820Z,100988.00
2022-11-26T08:04:09.747Z,100986.40
2022-11-26T08:06:38.798Z,100987.40
2022-11-26T08:09:08.119Z,100991.20
2022-11-26T08:11:37.020Z,100993.40
2022-11-26T08:14:10.641Z,100994.40
2022-11-26T08:16:41.002Z,100995.00
2022-11-26T08:19:13.863Z,100995.20
2022-11-26T08:21:42.726Z,100996.00
2022-11-26T08:24:18.492Z,100997.80
2022-11-26T08:26:47.650Z,100998.00
2022-11-26T08:29:16.568Z,100999.40
2022-11-26T08:31:46.744Z,101006.00
2022-11-26T08:34:16.906Z,101009.80
2022-11-26T08:36:46.516Z,101017.00
2022-11-26T08:39:18.099Z,101013.80
2022-11-26T08:41:52.184Z,101018.20
2022-11-26T08:44:22.724Z,101020.40
2022-11-26T08:46:51.606Z,101028.40
2022-11-26T08:49:20.318Z,101028.80
2022-11-26T08:51:49.286Z,101030.80
2022-11-26T08:54:18.267Z,101035.00
2022-11-26T08:56:47.285Z,101042.80
2022-11-26T08:59:17.826Z,101050.20
2022-11-26T09:01:46.862Z,101049.80
2022-11-26T09:04:16.086Z,101054.40
2022-11-26T09:06:44.885Z,101055.40
2022-11-26T09:09:14.368Z,101059.60
2022-11-26T09:11:52.467Z,101059.00
2022-11-26T09:14:25.336Z,101062.20
2022-11-26T09:16:58.581Z,101063.60
2022-11-26T09:19:29.227Z,101060.00
2022-11-26T09:21:59.625Z,101066.80
2022-11-26T09:24:28.628Z,101065.80
2022-11-26T09:27:00.482Z,101075.80
2022-11-26T09:29:32.045Z,101078.20
2022-11-26T09:34:53.409Z,101081.60
2022-11-26T09:37:22.348Z,101078.40
2022-11-26T09:39:53.414Z,101079.20
2022-11-26T09:42:37.247Z,101076.80
2022-11-26T09:45:38.923Z,101078.40
2022-11-26T09:48:18.026Z,101079.20
2022-11-26T09:50:53.615Z,101081.80
2022-11-26T09:53:31.285Z,101082.20
2022-11-26T09:56:02.209Z,101080.20
2022-11-26T09:58:42.847Z,101082.60
2022-11-26T10:01:20.011Z,101083.40
2022-11-26T10:03:50.825Z,101086.00
2022-11-26T10:06:41.629Z,101088.80
2022-11-26T10:09:47.526Z,101083.20
2022-11-26T10:13:18.675Z,101089.80
2022-11-26T10:16:03.329Z,101098.00
2022-11-26T10:19:01.786Z,101098.40
2022-11-26T14:53:51.285Z,101280.60
2022-11-26T14:56:24.127Z,101279.60
2022-11-26T14:59:00.271Z,101280.40
2022-11-26T15:01:30.002Z,101286.40
2022-11-26T15:04:05.961Z,101290.60
2022-11-26T15:06:43.452Z,101291.20
2022-11-26T15:09:19.414Z,101294.60
2022-11-26T15:12:15.220Z,101299.60
2022-11-26T15:14:59.453Z,101298.20
2022-11-26T15:17:31.836Z,101293.60
2022-11-26T15:20:07.221Z,101297.20
2022-11-26T15:22:50.615Z,101295.20
2022-11-26T15:25:32.823Z,101295.60
2022-11-26T15:28:16.645Z,101300.40
2022-11-26T15:31:01.643Z,101306.20
2022-11-26T15:33:34.671Z,101303.00
2022-11-26T15:36:06.302Z,101308.80
2022-11-26T15:38:38.832Z,101309.00
2022-11-26T15:41:23.195Z,101310.40
2022-11-26T15:43:59.251Z,101308.60
2022-11-26T15:46:37.590Z,101315.60
2022-11-26T15:49:21.722Z,101316.40
2022-11-26T15:52:06.384Z,101315.20
2022-11-26T15:57:52.448Z,101316.40
2022-11-26T16:00:27.758Z,101317.40
2022-11-26T16:02:57.052Z,101316.60
2022-11-26T16:05:38.981Z,101312.80
2022-11-26T16:08:28.102Z,101315.60
2022-11-26T16:11:19.982Z,101318.60
2022-11-26T16:13:48.922Z,101322.20
2022-11-26T16:16:24.907Z,101322.80
2022-11-26T16:18:59.793Z,101325.20
2022-11-26T16:21:35.664Z,101322.40
2022-11-26T16:24:19.937Z,101329.20
2022-11-26T16:26:58.739Z,101325.60
2022-11-26T16:29:30.553Z,101328.40
2022-11-26T16:32:00.283Z,101324.80
2022-11-26T16:34:30.020Z,101323.60
2022-11-26T16:37:16.932Z,101329.40
2022-11-26T16:39:46.341Z,101331.00
2022-11-26T16:42:21.701Z,101331.40
2022-11-26T16:44:51.189Z,101331.80
2022-11-26T16:47:27.861Z,101339.20
2022-11-26T16:49:57.360Z,101337.60
2022-11-26T16:52:26.459Z,101340.20
2022-11-26T16:54:55.661Z,101336.80
2022-11-26T16:57:28.443Z,101334.80
2022-11-26T17:00:05.288Z,101335.40
2022-11-26T17:02:34.351Z,101332.80
2022-11-26T17:05:05.197Z,101335.20
2022-11-26T17:07:47.115Z,101336.60
2022-11-26T17:10:20.180Z,101337.20
2022-11-26T17:12:50.130Z,101335.60
2022-11-26T17:15:19.349Z,101331.00
2022-11-26T17:17:48.616Z,101336.00
2022-11-26T17:20:27.726Z,101338.60
2022-11-26T17:22:56.781Z,101340.80
2022-11-26T17:25:25.774Z,101339.40
2022-11-26T17:27:54.664Z,101337.80
2022-11-26T17:30:25.387Z,101345.80
2022-11-26T17:32:54.182Z,101354.40
2022-11-26T17:35:22.891Z,101348.40
2022-11-26T17:37:51.974Z,101352.80
2022-11-26T17:40:24.258Z,101349.40
2022-11-26T17:42:53.238Z,101356.60
2022-11-26T17:45:22.631Z,101358.80
2022-11-26T17:47:51.644Z,101362.40
2022-11-26T17:50:29.026Z,101361.20
2022-11-26T17:52:58.535Z,101364.20
2022-11-26T17:55:28.343Z,101368.60
2022-11-26T17:57:57.342Z,101367.20
2022-11-26T18:00:29.893Z,101366.40
2022-11-26T18:02:59.244Z,101365.80
2022-11-26T18:05:28.822Z,101365.80
2022-11-26T18:07:57.849Z,101361.40
2022-11-26T18:10:26.911Z,101371.80
2022-11-26T18:12:56.217Z,101373.20
2022-11-26T18:15:28.863Z,101370.60
2022-11-26T18:17:57.779Z,101369.60
2022-11-26T18:20:29.308Z,101363.40
2022-11-26T18:23:01.710Z,101368.80
2022-11-26T18:25:33.645Z,101374.40
2022-11-26T18:28:02.576Z,101376.80
2022-11-26T18:30:31.367Z,101377.80
2022-11-26T18:33:00.499Z,101378.80
2022-11-26T18:35:29.440Z,101379.20
2022-11-26T18:37:58.335Z,101381.00
2022-11-26T18:40:28.144Z,101378.00
2022-11-26T18:42:57.243Z,101377.80
2022-11-26T18:45:26.151Z,101375.60
2022-11-26T18:47:55.013Z,101376.40
2022-11-26T18:50:24.221Z,101384.40
2022-11-26T18:52:53.228Z,101385.00
2022-11-26T18:55:22.310Z,101390.40
2022-11-26T18:57:52.013Z,101392.80
2022-11-26T19:00:21.508Z,101392.40
2022-11-26T19:02:50.665Z,101403.20
2022-11-26T19:05:19.758Z,101400.60
2022-11-26T19:07:48.876Z,101399.40
2022-11-26T19:10:17.823Z,101399.40
2022-11-26T19:12:48.871Z,101402.80
2022-11-26T19:15:18.452Z,101406.00
2022-11-26T19:17:47.456Z,101403.60
2022-11-26T19:20:16.635Z,101403.60
2022-11-26T19:22:46.542Z,101405.80
2022-11-26T19:25:15.479Z,101408.80
2022-11-26T19:27:44.450Z,101413.20
2022-11-26T19:30:17.255Z,101407.20
2022-11-26T19:32:46.282Z,101414.80
2022-11-26T19:35:16.546Z,101417.60
2022-11-26T19:37:45.955Z,101422.40
2022-11-26T19:40:15.142Z,101424.20
2022-11-26T19:42:44.350Z,101425.00
2022-11-26T19:45:13.563Z,101428.40
2022-11-26T19:47:42.641Z,101433.60
2022-11-26T19:50:12.416Z,101436.40
2022-11-26T19:52:43.983Z,101434.00
2022-11-26T19:55:21.883Z,101436.80
2022-11-26T19:57:51.513Z,101442.80
2022-11-26T20:00:21.522Z,101448.00
2022-11-26T20:02:50.681Z,101446.80
2022-11-26T20:05:19.865Z,101449.20
2022-11-26T20:07:48.999Z,101451.80
2022-11-26T20:10:18.110Z,101452.20
2022-11-26T20:12:47.424Z,101453.00
2022-11-26T20:15:16.538Z,101454.40
2022-11-26T20:17:45.579Z,101455.60
2022-11-26T20:20:14.515Z,101453.00
2022-11-26T20:22:44.333Z,101446.40
2022-11-26T20:25:16.287Z,101450.20
2022-11-26T20:27:45.389Z,101448.60
2022-11-26T20:30:14.848Z,101446.20
2022-11-26T20:32:43.979Z,101447.60
2022-11-26T20:35:12.880Z,101446.00
2022-11-26T20:37:41.865Z,101451.40
2022-11-26T20:40:12.265Z,101446.40
2022-11-26T20:42:41.414Z,101448.40
2022-11-26T20:45:10.811Z,101452.40
2022-11-26T20:47:40.092Z,101451.20
2022-11-26T20:50:11.335Z,101452.60
2022-11-26T20:52:40.355Z,101454.40
2022-11-26T20:55:10.394Z,101453.20
2022-11-26T20:57:39.448Z,101448.80
2022-11-26T21:00:09.697Z,101449.40
2022-11-26T21:02:38.845Z,101449.20
2022-11-26T21:05:08.779Z,101446.80
2022-11-26T21:07:38.020Z,101449.00
2022-11-26T21:10:09.572Z,101448.20
2022-11-26T21:12:39.130Z,101452.80
2022-11-26T21:15:09.610Z,101451.80
2022-11-26T21:17:38.821Z,101454.60
2022-11-26T21:20:09.711Z,101453.80
2022-11-26T21:22:39.007Z,101456.80
2022-11-26T21:25:09.622Z,101458.40
2022-11-26T21:27:38.642Z,101456.20
2022-11-26T21:30:08.804Z,101453.40
2022-11-26T21:32:37.758Z,101456.20
2022-11-26T21:35:07.637Z,101453.60
2022-11-26T21:37:36.822Z,101459.20
2022-11-26T21:40:06.681Z,101455.80
2022-11-26T21:42:35.476Z,101456.80
2022-11-26T21:45:05.572Z,101456.60
2022-11-26T21:47:35.401Z,101455.40
2022-11-26T21:50:06.147Z,101456.80
2022-11-26T21:52:35.332Z,101455.20
2022-11-26T21:55:05.245Z,101455.40
2022-11-26T21:57:35.260Z,101457.00
2022-11-26T22:00:06.086Z,101455.40
2022-11-26T22:02:35.048Z,101457.60
2022-11-26T22:05:04.519Z,101456.80
2022-11-26T22:07:33.715Z,101452.80
2022-11-26T22:10:02.919Z,101449.00
2022-11-26T22:12:32.002Z,101447.20
2022-11-26T22:15:01.332Z,101448.80
2022-11-26T22:17:30.191Z,101455.40
2022-11-26T22:19:59.284Z,101453.60
2022-11-26T22:22:28.387Z,101456.40
2022-11-26T22:24:57.283Z,101455.20
2022-11-26T22:27:26.271Z,101452.60
2022-11-26T22:29:55.052Z,101451.80
2022-11-26T22:32:23.848Z,101451.40
2022-11-26T22:34:52.950Z,101455.40
2022-11-26T22:37:21.925Z,101453.80
2022-11-26T22:39:53.805Z,101452.00
2022-11-26T22:42:23.196Z,101448.80
2022-11-26T22:44:52.299Z,101446.20
2022-11-26T22:47:21.189Z,101441.60
2022-11-26T22:49:50.999Z,101441.40
2022-11-26T22:52:20.916Z,101443.00
2022-11-26T22:54:49.814Z,101449.20
2022-11-26T22:57:22.365Z,101449.20
2022-11-26T23:00:11.068Z,101445.80
2022-11-26T23:02:48.799Z,101447.40
2022-11-26T23:05:28.064Z,101448.40
2022-11-26T23:08:07.101Z,101445.80
2022-11-26T23:10:42.401Z,101436.80
2022-11-26T23:13:19.307Z,101446.60
2022-11-26T23:15:56.793Z,101445.80
2022-11-26T23:18:32.281Z,101447.80
2022-11-26T23:21:16.971Z,101438.40
2022-11-26T23:24:16.206Z,101445.60
2022-11-26T23:26:54.820Z,101449.40
2022-11-26T23:29:31.411Z,101456.80
2022-11-26T23:32:10.114Z,101452.60
2022-11-26T23:34:49.338Z,101448.80
2022-11-26T23:37:25.587Z,101451.80
2022-11-26T23:40:03.933Z,101449.60
2022-11-26T23:42:41.065Z,101451.20
2022-11-26T23:45:12.165Z,101448.40
2022-11-26T23:47:41.980Z,101451.20
2022-11-26T23:50:18.902Z,101448.40
2022-11-26T23:52:53.882Z,101444.40
2022-11-26T23:55:31.894Z,101446.00
2022-11-26T23:58:07.942Z,101438.40
